Data for 11/16/2005

Time Sea-Level Adjusted Pressure Absolute Pressure Temperature Relative Humidity Dew Point   
(mb) (inHg) (mb) (inHg) (C) (F) (%) (C) (F)
00:05 1027 30.33 856 25.28 -2.3 27.8 82 -4.9 23.1
00:10 1027 30.33 856 25.28 -2.2 28 83 -4.8 23.4
00:15 1027 30.33 856 25.28 -2.2 28 84 -4.7 23.6
00:20 1027 30.33 856 25.28 -2.2 28 83 -4.7 23.6
00:25 1027 30.33 856 25.28 -2.5 27.6 83 -5 23
00:30 1027 30.33 856 25.28 -2.7 27.1 82 -5.4 22.3
00:35 1027 30.33 856 25.28 -2.8 26.9 81 -5.7 21.8
00:40 1027 30.33 856 25.28 -3 26.7 82 -5.6 21.9
00:45 1027 30.33 856 25.28 -2.9 26.8 84 -5.2 22.6
00:50 1027 30.33 856 25.28 -2.9 26.8 84 -5.2 22.6
00:55 1027 30.33 856 25.28 -2.8 26.9 85 -5.1 22.9
01:00 1027 30.33 856 25.28 -2.9 26.9 85 -5 23
01:05 1027 30.33 856 25.28 -3 26.7 87 -4.9 23.2
01:10 1026 30.3 856 25.28 -3.1 26.5 87 -5 23.1
01:15 1026 30.3 856 25.28 -3.2 26.2 87 -5 22.9
01:20 1026 30.3 856 25.28 -3.4 26 88 -5.1 22.9
01:25 1026 30.3 856 25.28 -3.4 25.9 88 -5.2 22.7
01:30 1026 30.3 856 25.28 -3.4 25.8 88 -5.1 22.8
01:35 1026 30.3 856 25.28 -3.6 25.6 89 -5.1 22.8
01:40 1026 30.3 856 25.28 -3.6 25.6 90 -5 22.9
01:45 1026 30.3 856 25.28 -3.7 25.4 90 -5.1 22.9
01:50 1027 30.33 856 25.28 -3.7 25.3 90 -5.1 22.9
01:55 1026 30.3 856 25.28 -3.7 25.4 90 -5.2 22.7
02:00 1026 30.3 856 25.28 -3.6 25.6 89 -5.1 22.9
02:05 1026 30.3 855 25.25 -3.5 25.8 89 -5 22.9
02:10 1026 30.3 855 25.25 -3.5 25.8 89 -5 23
02:15 1026 30.3 855 25.25 -3.5 25.6 90 -5 23.1
02:20 1026 30.3 855 25.25 -3.6 25.5 90 -5 23
02:25 1026 30.3 855 25.25 -3.6 25.5 90 -5 23
02:30 1026 30.3 855 25.25 -3.5 25.6 89 -5.1 22.9
02:35 1026 30.3 855 25.25 -3.5 25.7 88 -5.1 22.8
02:40 1026 30.3 855 25.25 -3.3 26.1 88 -5 22.9
02:45 1026 30.3 855 25.25 -3.2 26.2 88 -4.9 23.2
02:50 1026 30.3 855 25.25 -3.2 26.2 88 -5 23
02:55 1026 30.3 855 25.25 -3.3 26.1 88 -5 23
03:00 1026 30.3 855 25.25 -3.3 26 88 -5 23
03:05 1026 30.3 855 25.25 -3.1 26.3 87 -5 23.1
03:10 1026 30.3 855 25.25 -3.1 26.4 87 -4.9 23.1
03:15 1026 30.3 855 25.25 -3.1 26.5 86 -5.1 22.9
03:20 1026 30.3 855 25.25 -3 26.5 87 -4.9 23.2
03:25 1026 30.3 855 25.25 -2.9 26.7 86 -5 23
03:30 1026 30.3 855 25.25 -2.9 26.7 86 -5 23
03:35 1025 30.27 855 25.25 -3 26.7 87 -4.8 23.3
03:40 1025 30.27 855 25.25 -2.9 26.8 87 -4.8 23.3
03:45 1025 30.27 855 25.25 -2.8 26.9 87 -4.8 23.4
03:50 1025 30.27 854 25.22 -2.7 27.2 85 -4.9 23.2
03:55 1025 30.27 854 25.22 -2.7 27.2 85 -4.8 23.3
04:00 1025 30.27 854 25.22 -2.7 27.1 86 -4.8 23.4
04:05 1025 30.27 854 25.22 -2.6 27.3 85 -4.9 23.3
04:10 1025 30.27 854 25.22 -2.8 27 86 -4.8 23.3
04:15 1025 30.27 854 25.22 -2.7 27.2 86 -4.8 23.4
04:20 1025 30.27 854 25.22 -2.5 27.5 84 -4.8 23.3
04:25 1025 30.27 854 25.22 -2.4 27.6 84 -4.8 23.4
04:30 1025 30.27 854 25.22 -2.5 27.5 86 -4.6 23.7
04:35 1025 30.27 854 25.22 -2.4 27.6 84 -4.8 23.3
04:40 1025 30.27 854 25.22 -2.5 27.6 84 -4.8 23.4
04:45 1025 30.27 854 25.22 -2.3 27.9 82 -5 23
04:50 1025 30.27 855 25.25 -2.2 28.1 82 -4.9 23.2
04:55 1025 30.27 855 25.25 -2 28.4 82 -4.8 23.4
05:00 1025 30.27 855 25.25 -1.9 28.5 81 -4.9 23.3
05:05 1025 30.27 855 25.25 -1.8 28.8 81 -4.7 23.6
05:10 1025 30.27 855 25.25 -2.1 28.1 80 -5.1 22.9
05:15 1025 30.27 855 25.25 -2.2 28 82 -4.9 23.2
05:20 1025 30.27 855 25.25 -2.2 28 81 -5.1 22.9
05:25 1025 30.27 855 25.25 -2.3 27.9 81 -5.1 22.8
05:30 1025 30.27 855 25.25 -2.3 27.9 82 -5 23
05:35 1025 30.27 854 25.22 -2.2 28 81 -5.1 22.9
05:40 1025 30.27 854 25.22 -2.1 28.2 82 -4.8 23.4
05:45 1025 30.27 854 25.22 -2.1 28.3 82 -4.7 23.5
05:50 1025 30.27 855 25.25 -2.1 28.3 82 -4.8 23.3
05:55 1025 30.27 855 25.25 -1.9 28.6 80 -4.9 23.2
06:00 1025 30.27 855 25.25 -1.9 28.6 79 -5 23
06:05 1025 30.27 855 25.25 -1.8 28.8 79 -5 23
06:10 1025 30.27 855 25.25 -1.9 28.5 81 -4.8 23.3
06:15 1025 30.27 854 25.22 -2 28.4 80 -5 23
06:20 1025 30.27 854 25.22 -1.9 28.7 80 -4.9 23.2
06:25 1025 30.27 854 25.22 -1.8 28.8 79 -5 23.1
06:30 1025 30.27 854 25.22 -1.7 28.9 78 -5.1 22.8
06:35 1025 30.27 854 25.22 -1.6 29.1 78 -5 23.1
06:40 1025 30.27 854 25.22 -1.6 29 77 -5.1 22.8
06:45 1025 30.27 854 25.22 -1.4 29.5 76 -5 22.9
06:50 1025 30.27 854 25.22 -1.3 29.6 76 -5 23
06:55 1025 30.27 854 25.22 -1.2 29.9 74 -5.2 22.7
07:00 1025 30.27 854 25.22 -1 30.2 76 -4.8 23.4
07:05 1025 30.27 854 25.22 -1.2 29.9 77 -4.6 23.7
07:10 1025 30.27 854 25.22 -1.1 30 78 -4.5 24
07:15 1025 30.27 854 25.22 -1.3 29.7 79 -4.5 23.9
07:20 1025 30.27 854 25.22 -1.2 29.8 78 -4.6 23.8
07:25 1025 30.27 854 25.22 -0.9 30.4 77 -4.5 23.9
07:30 1025 30.27 854 25.22 -0.7 30.8 73 -5 23.1
07:35 1025 30.27 854 25.22 -0.6 30.9 72 -5.1 22.9
07:40 1025 30.27 854 25.22 -0.5 31.1 73 -4.7 23.5
07:45 1025 30.27 854 25.22 -0.5 31.1 73 -4.7 23.5
07:50 1025 30.27 854 25.22 -0.4 31.2 72 -4.8 23.3
07:55 1025 30.27 854 25.22 -0.2 31.7 68 -5.3 22.5
08:00 1025 30.27 854 25.22 0.1 32.2 67 -5.2 22.6
08:05 1025 30.27 854 25.22 0.3 32.5 67 -5.1 22.9
08:10 1025 30.27 854 25.22 0.4 32.7 68 -4.8 23.3
08:15 1025 30.27 854 25.22 0.3 32.6 69 -4.7 23.6
08:20 1025 30.27 854 25.22 -0.1 31.8 73 -4.5 24
08:25 1025 30.27 854 25.22 -0.4 31.3 77 -4 24.8
08:30 1025 30.27 854 25.22 -0.5 31.1 77 -4 24.8
08:35 1025 30.27 854 25.22 -0.7 30.7 78 -4.1 24.6
08:40 1025 30.27 854 25.22 -0.6 30.8 77 -4.1 24.6
08:45 1025 30.27 854 25.22 -0.4 31.3 77 -4 24.7
08:50 1025 30.27 854 25.22 -0.2 31.6 75 -4.1 24.7
08:55 1025 30.27 854 25.22 0 32 76 -3.7 25.3
09:00 1025 30.27 854 25.22 0.2 32.3 74 -4 24.9
09:05 1025 30.27 854 25.22 0.1 32.1 74 -4 24.7
09:10 1025 30.27 854 25.22 0.1 32.2 74 -3.9 25
09:15 1025 30.27 854 25.22 0.2 32.4 74 -3.9 25
09:20 1025 30.27 854 25.22 0 32 75 -4 24.9
09:25 1025 30.27 854 25.22 -0 31.9 75 -4 24.8
09:30 1025 30.27 854 25.22 -0.2 31.6 76 -4 24.8
09:35 1025 30.27 854 25.22 -0 31.9 72 -4.5 23.9
09:40 1025 30.27 854 25.22 -0.1 31.8 74 -4.3 24.3
09:45 1025 30.27 854 25.22 0.1 32.3 71 -4.5 23.8
09:50 1025 30.27 854 25.22 0.5 32.9 70 -4.3 24.2
09:55 1025 30.27 854 25.22 0.7 33.2 68 -4.6 23.7
10:00 1025 30.27 854 25.22 0.8 33.5 69 -4.3 24.3
10:05 1025 30.27 854 25.22 1.1 34.1 68 -4.1 24.5
10:10 1025 30.27 854 25.22 1.2 34.2 68 -4 24.8
10:15 1025 30.27 854 25.22 1.3 34.3 69 -3.7 25.3
10:20 1025 30.27 854 25.22 1.6 34.8 68 -3.8 25.2
10:25 1025 30.27 854 25.22 1.8 35.2 68 -3.6 25.6
10:30 1025 30.27 854 25.22 2 35.6 67 -3.5 25.6
10:35 1025 30.27 854 25.22 2 35.6 67 -3.5 25.7
10:40 1025 30.27 854 25.22 2.1 35.8 68 -3.2 26.3
10:45 1025 30.27 854 25.22 2.1 35.9 66 -3.5 25.7
10:50 1025 30.27 854 25.22 2.1 35.7 67 -3.4 25.8
10:55 1025 30.27 854 25.22 1.6 34.9 70 -3.3 26
11:00 1025 30.27 854 25.22 1.2 34.2 70 -3.7 25.4
11:05 1025 30.27 854 25.22 1.1 34.1 68 -4 24.7
11:10 1025 30.27 854 25.22 1.1 33.9 67 -4.3 24.3
11:15 1025 30.27 854 25.22 1.2 34.2 67 -4.3 24.2
11:20 1024 30.24 854 25.22 1.3 34.4 66 -4.3 24.2
11:25 1024 30.24 854 25.22 1.5 34.7 66 -4.1 24.6
11:30 1024 30.24 853 25.19 1.5 34.8 65 -4.3 24.2
11:35 1024 30.24 853 25.19 1.6 34.9 62 -4.8 23.4
11:40 1024 30.24 853 25.19 1.9 35.4 62 -4.5 23.8
11:45 1024 30.24 853 25.19 2.2 35.9 63 -4.1 24.6
11:50 1024 30.24 853 25.19 2.4 36.4 62 -4.1 24.6
11:55 1024 30.24 853 25.19 2.8 37 62 -3.8 25.2
12:00 1024 30.24 853 25.19 3 37.5 59 -4.1 24.6
12:05 1024 30.24 853 25.19 3 37.4 62 -3.6 25.5
12:10 1024 30.24 853 25.19 3.5 38.3 59 -3.7 25.3
12:15 1024 30.24 853 25.19 3.5 38.4 59 -3.7 25.3
12:20 1024 30.24 853 25.19 3.5 38.3 60 -3.6 25.5
12:25 1023 30.21 853 25.19 3.5 38.2 60 -3.6 25.5
12:30 1023 30.21 853 25.19 3.2 37.8 63 -3.2 26.2
12:35 1023 30.21 853 25.19 3.4 38 60 -3.6 25.5
12:40 1023 30.21 852 25.16 3.1 37.7 61 -3.7 25.4
12:45 1023 30.21 852 25.16 3.4 38.1 61 -3.5 25.7
12:50 1023 30.21 852 25.16 3.6 38.4 60 -3.6 25.6
12:55 1023 30.21 852 25.16 3.6 38.5 61 -3.3 26
13:00 1023 30.21 852 25.16 3.4 38.1 61 -3.5 25.8
13:05 1023 30.21 852 25.16 3 37.4 62 -3.7 25.4
13:10 1023 30.21 852 25.16 3.1 37.5 62 -3.6 25.6
13:15 1023 30.21 852 25.16 3 37.5 61 -3.7 25.3
13:20 1023 30.21 852 25.16 3.3 37.9 62 -3.2 26.2
13:25 1023 30.21 852 25.16 3.3 38 62 -3.4 26
13:30 1023 30.21 852 25.16 3.4 38.1 60 -3.5 25.7
13:35 1023 30.21 852 25.16 3.4 38.1 60 -3.7 25.3
13:40 1023 30.21 852 25.16 3.4 38.1 65 -2.6 27.2
13:45 1022 30.18 852 25.16 2.8 37.1 67 -2.8 27
13:50 1022 30.18 852 25.16 2.3 36.1 66 -3.3 26
13:55 1022 30.18 852 25.16 2.3 36.2 66 -3.5 25.7
14:00 1022 30.18 852 25.16 2.4 36.4 65 -3.5 25.6
14:05 1022 30.18 851 25.13 2.7 36.8 64 -3.4 25.8
14:10 1022 30.18 851 25.13 2.8 37 64 -3.3 26
14:15 1022 30.18 851 25.13 3 37.4 64 -3.2 26.3
14:20 1022 30.18 851 25.13 3.3 38 63 -3.2 26.3
14:25 1022 30.18 851 25.13 3.5 38.2 62 -3.1 26.4
14:30 1022 30.18 851 25.13 3.2 37.7 64 -3.1 26.5
14:35 1021 30.15 851 25.13 3.5 38.3 60 -3.4 25.8
14:40 1021 30.15 851 25.13 3.8 38.9 60 -3.3 26
14:45 1022 30.18 851 25.13 3.8 38.9 60 -3.3 26
14:50 1022 30.18 851 25.13 3.9 39 60 -3.2 26.2
14:55 1022 30.18 851 25.13 3.9 39 59 -3.3 26
15:00 1022 30.18 851 25.13 3.9 39.1 59 -3.2 26.2
15:05 1022 30.18 851 25.13 3.9 39 61 -2.9 26.7
15:10 1022 30.18 851 25.13 3.9 39 60 -3.1 26.5
15:15 1022 30.18 851 25.13 3.8 38.8 63 -2.6 27.3
15:20 1022 30.18 851 25.13 3.2 37.8 67 -2.2 28
15:25 1022 30.18 851 25.13 2.8 37 68 -2.4 27.6
15:30 1022 30.18 851 25.13 2.7 36.8 69 -2.5 27.5
15:35 1022 30.18 851 25.13 2.5 36.5 68 -2.7 27.1
15:40 1022 30.18 852 25.16 2.5 36.5 67 -2.9 26.7
15:45 1023 30.21 852 25.16 2.6 36.6 66 -3.2 26.2
15:50 1023 30.21 852 25.16 2.5 36.6 66 -3.1 26.5
15:55 1023 30.21 852 25.16 2.8 37 66 -3 26.6
16:00 1023 30.21 852 25.16 2.9 37.2 65 -2.9 26.7
16:05 1023 30.21 852 25.16 3 37.4 65 -2.9 26.8
16:10 1022 30.18 852 25.16 2.8 37 67 -2.7 27.1
16:15 1022 30.18 851 25.13 2.2 35.9 73 -2.1 28.2
16:20 1022 30.18 851 25.13 2 35.5 72 -2.5 27.4
16:25 1022 30.18 851 25.13 2.1 35.8 72 -2.4 27.8
16:30 1022 30.18 851 25.13 2.1 35.8 73 -2.3 27.9
16:35 1022 30.18 851 25.13 2.2 35.9 74 -1.9 28.5
16:40 1022 30.18 851 25.13 2 35.6 74 -2.1 28.2
16:45 1022 30.18 851 25.13 2.1 35.7 73 -2.3 27.9
16:50 1022 30.18 851 25.13 1.9 35.5 75 -2.1 28.2
16:55 1022 30.18 851 25.13 1.6 34.9 76 -2.2 28
17:00 1021 30.15 851 25.13 1.6 34.8 79 -1.7 28.9
17:05 1021 30.15 850 25.1 1.9 35.4 76 -2 28.4
17:10 1021 30.15 850 25.1 2.6 36.6 75 -1.4 29.5
17:15 1021 30.15 850 25.1 3.3 37.9 74 -0.9 30.4
17:20 1021 30.15 850 25.1 3.6 38.4 74 -0.7 30.8
17:25 1021 30.15 850 25.1 3.8 38.8 72 -0.8 30.6
17:30 1021 30.15 850 25.1 3.9 39 72 -0.8 30.6
17:35 1021 30.15 850 25.1 3.6 38.5 73 -0.8 30.5
17:40 1021 30.15 851 25.13 2.4 36.4 77 -1.1 29.9
17:45 1021 30.15 851 25.13 2.3 36.1 77 -1.3 29.7
17:50 1021 30.15 851 25.13 2.5 36.5 76 -1.4 29.6
17:55 1021 30.15 851 25.13 2.7 36.9 73 -1.7 29
18:00 1021 30.15 851 25.13 2.8 37 71 -2 28.5
18:05 1021 30.15 851 25.13 2.8 37 72 -1.9 28.6
18:10 1021 30.15 851 25.13 2.5 36.6 73 -1.7 28.9
18:15 1022 30.18 851 25.13 2.4 36.4 73 -1.8 28.7
18:20 1022 30.18 851 25.13 2.5 36.5 73 -1.8 28.8
18:25 1022 30.18 851 25.13 2.7 36.8 73 -1.7 28.9
18:30 1022 30.18 851 25.13 2.8 37.1 73 -1.5 29.4
18:35 1022 30.18 851 25.13 3 37.3 73 -1.4 29.4
18:40 1022 30.18 851 25.13 3.2 37.7 71 -1.5 29.3
18:45 1022 30.18 851 25.13 3.2 37.7 70 -1.8 28.8
18:50 1022 30.18 851 25.13 3.1 37.5 71 -1.7 28.9
18:55 1022 30.18 851 25.13 3.2 37.8 70 -1.7 29
19:00 1022 30.18 851 25.13 3.2 37.8 69 -1.9 28.6
19:05 1022 30.18 851 25.13 2.8 37 72 -1.7 29
19:10 1021 30.15 851 25.13 2.1 35.8 73 -2.3 27.8
19:15 1021 30.15 851 25.13 2.1 35.7 73 -2.2 28
19:20 1021 30.15 851 25.13 2 35.6 73 -2.4 27.7
19:25 1021 30.15 851 25.13 2 35.6 73 -2.3 27.8
19:30 1021 30.15 851 25.13 1.9 35.5 72 -2.5 27.4
19:35 1021 30.15 851 25.13 2.1 35.7 71 -2.6 27.4
19:40 1021 30.15 851 25.13 2.1 35.8 72 -2.5 27.5
19:45 1021 30.15 851 25.13 2.1 35.8 72 -2.5 27.5
19:50 1021 30.15 851 25.13 2.3 36.1 71 -2.4 27.7
19:55 1022 30.18 851 25.13 2.4 36.4 70 -2.5 27.6
20:00 1022 30.18 851 25.13 2.6 36.6 69 -2.5 27.5
20:05 1022 30.18 851 25.13 2.6 36.7 69 -2.4 27.6
20:10 1022 30.18 851 25.13 2.7 36.8 69 -2.5 27.5
20:15 1022 30.18 851 25.13 2.8 37.1 69 -2.3 27.9
20:20 1022 30.18 851 25.13 2.9 37.1 71 -1.8 28.7
20:25 1022 30.18 851 25.13 2.6 36.7 74 -1.6 29.2
20:30 1022 30.18 851 25.13 2.4 36.3 76 -1.4 29.5
20:35 1022 30.18 851 25.13 2.2 36 78 -1.3 29.7
20:40 1022 30.18 851 25.13 2.3 36.2 77 -1.2 29.8
20:45 1022 30.18 851 25.13 2.3 36.1 79 -1 30.2
20:50 1022 30.18 851 25.13 2.2 35.9 80 -0.9 30.4
20:55 1022 30.18 852 25.16 2.1 35.9 81 -0.8 30.5
21:00 1022 30.18 852 25.16 2.1 35.9 81 -0.8 30.5
21:05 1022 30.18 852 25.16 2.1 35.8 81 -0.8 30.5
21:10 1022 30.18 852 25.16 2 35.6 81 -1 30.3
21:15 1022 30.18 852 25.16 1.9 35.4 81 -0.9 30.3
21:20 1022 30.18 852 25.16 1.8 35.3 82 -0.9 30.3
21:25 1022 30.18 852 25.16 1.9 35.5 82 -0.8 30.5
21:30 1023 30.21 852 25.16 1.8 35.3 82 -0.9 30.3
21:35 1023 30.21 852 25.16 1.7 35.1 83 -0.9 30.4
21:40 1023 30.21 852 25.16 1.8 35.2 82 -1 30.2
21:45 1023 30.21 852 25.16 1.7 35 83 -0.9 30.5
21:50 1023 30.21 852 25.16 1.4 34.5 84 -1 30.1
21:55 1023 30.21 852 25.16 1.5 34.7 83 -1 30.2
22:00 1023 30.21 852 25.16 1.5 34.7 84 -0.9 30.3
22:05 1023 30.21 852 25.16 1.7 35.1 82 -1.1 30.1
22:10 1023 30.21 852 25.16 2 35.7 82 -0.8 30.6
22:15 1023 30.21 852 25.16 1.9 35.4 81 -0.9 30.3
22:20 1023 30.21 852 25.16 2 35.6 81 -0.9 30.3
22:25 1023 30.21 852 25.16 2 35.6 82 -0.8 30.5
22:30 1023 30.21 852 25.16 2 35.6 81 -0.9 30.4
22:35 1023 30.21 852 25.16 2.1 35.7 81 -0.9 30.4
22:40 1023 30.21 852 25.16 2 35.6 81 -1 30.3
22:45 1023 30.21 852 25.16 2 35.6 81 -1 30.3
22:50 1023 30.21 853 25.19 2 35.6 80 -1.1 30
22:55 1023 30.21 853 25.19 2.1 35.9 79 -1.1 30.1
23:00 1023 30.21 853 25.19 2.2 36 79 -1 30.3
23:05 1024 30.24 853 25.19 2.1 35.7 81 -0.9 30.4
23:10 1024 30.24 853 25.19 2 35.5 82 -0.8 30.6
23:15 1024 30.24 853 25.19 1.8 35.2 82 -0.9 30.4
23:20 1024 30.24 853 25.19 1.7 35.1 84 -0.7 30.8
23:25 1024 30.24 853 25.19 1.8 35.3 84 -0.6 30.9
23:30 1024 30.24 853 25.19 1.6 34.9 84 -0.7 30.7
23:35 1024 30.24 853 25.19 1.6 34.8 84 -0.9 30.4
23:40 1024 30.24 853 25.19 1.6 34.8 85 -0.7 30.7
23:45 1024 30.24 853 25.19 1.4 34.6 87 -0.6 31
23:50 1024 30.24 853 25.19 1.3 34.3 88 -0.5 31.1
23:55 1024 30.24 853 25.19 1.2 34.1 88 -0.6 30.9
24:00 1024 30.24 853 25.19 1.2 34.1 88 -0.7 30.8